Chernihiv, Ukraine
Current Conditions -  °F | °C
As of 8:30 AM on Sunday 23 Nov 2014 (Local Time) from UMGG Reporting Station
Clear Clear  
Wind Chill: 27°   Ceiling: Unl
Heat Index: 27°   Visibility: 4mi
Dew Point: 25°   Wind: 2mph
Humidity: 93%   Direction: NA
Pressure: 30.42"   Gusts: NA
Location:  51.5°N, 31.3°E
Report Text: UMGG 230530Z VRB01MPS 6000 NSC M03/M04 Q1030 R28/CLRD//NOSIG
Loading
Personal Weather Stations






























Interactive Weather Map New forecast layout! Learn more

10-Day Weather Forecast

Advertisements
Track Severe Weather on mobile